Cafer Dede — V7PR8 — position and weather

sailwx.info

Track history (hours):
 
Tides and Currents Weather Stations Pressure Air Temp Water Temp Dewpoint Dewpoint Depression Visibility Wind Speed Wind Dir Waves Ship Positions

Cafer Dede

Last reported at 2018-Feb-23 12:00 UTC. Time now 2018-Feb-23 18:25 UTC.
Position N 29°30' W 028°06'.

Length 182 m; draft 11 m.

Type: Ship. MMSI: 538090362.

Wind from 010 at 28 knots

Barometer 1009.0 mb
Air temperature 23.0 ° C
Visibility: greater than 10.8 NM
Dewpoint 12.8 ° C
Water temperature 22.2 ° C

Date/timePositionNaut miles runAvg speedWind from/ knotsBaromVisibWave heightAir tempDewpointWater temp
2018-Feb-23 12:00N 29°30' W 028°06'   010 / 281009.010.8 23.012.822.2
2018-Feb-15 23:18N 36°08' W 005°25'0 0.0
2018-Feb-15 23:00N 36°08' W 005°25'0 0.0
2018-Feb-15 22:29N 36°08' W 005°25'0 0.0
2018-Feb-15 21:59N 36°08' W 005°25'0 0.0
2018-Feb-15 21:29N 36°08' W 005°25'0 0.0
2018-Feb-15 20:59N 36°08' W 005°25'0 0.0
2018-Feb-15 20:29N 36°08' W 005°25'0 0.0
2018-Feb-15 19:59N 36°08' W 005°25'0 1.0
2018-Feb-15 19:30N 36°08' W 005°25'3 6.9
2018-Feb-15 19:00N 36°06' W 005°22'4 8.8
2018-Feb-15 18:29N 36°04' W 005°17'2 4.3
2018-Feb-15 18:00N 36°04' W 005°15'7 0.4
2018-Feb-14 23:31N 36°08' W 005°09'0 2.0
2018-Feb-14 23:30N 36°08' W 005°09'  
Track history (hours):
 
Tides and Currents Weather Stations Pressure Air Temp Water Temp Dewpoint Dewpoint Depression Visibility Wind Speed Wind Dir Waves Ship Positions

Cafer Dede

Last reported at 2018-Feb-23 12:00 UTC. Time now 2018-Feb-23 18:25 UTC.
Position N 29°30' W 028°06'.

Length 182 m; draft 11 m.

Type: Ship. MMSI: 538090362.

Wind from 010 at 28 knots

Barometer 1009.0 mb
Air temperature 23.0 ° C
Visibility: greater than 10.8 NM
Dewpoint 12.8 ° C
Water temperature 22.2 ° C

Date/timePositionNaut miles runAvg speedWind from/ knotsBaromVisibWave heightAir tempDewpointWater temp
2018-Feb-23 12:00N 29°30' W 028°06'   010 / 281009.010.8 23.012.822.2
2018-Feb-15 23:18N 36°08' W 005°25'0 0.0
2018-Feb-15 23:00N 36°08' W 005°25'0 0.0
2018-Feb-15 22:29N 36°08' W 005°25'0 0.0
2018-Feb-15 21:59N 36°08' W 005°25'0 0.0
2018-Feb-15 21:29N 36°08' W 005°25'0 0.0
2018-Feb-15 20:59N 36°08' W 005°25'0 0.0
2018-Feb-15 20:29N 36°08' W 005°25'0 0.0
2018-Feb-15 19:59N 36°08' W 005°25'0 1.0
2018-Feb-15 19:30N 36°08' W 005°25'3 6.9
2018-Feb-15 19:00N 36°06' W 005°22'4 8.8
2018-Feb-15 18:29N 36°04' W 005°17'2 4.3
2018-Feb-15 18:00N 36°04' W 005°15'7 0.4
2018-Feb-14 23:31N 36°08' W 005°09'0 2.0
2018-Feb-14 23:30N 36°08' W 005°09'  

Dump ship's entire track history